Terminal Aerodrome Forecast
Issued by NWS Dallas/Fort Worth, TX

Home | Current Version | Previous Version | Text Only | Print | Product List | Glossary On
Versions: 1 2 3 4 5 6 7 8 9 10 11 12 13 14 15 16 17 18 19 20 21 22 23 24 25 26 27 28 29 30
000
FTUS44 KFWD 220804 AAA
TAFACT
TAF AMD
KACT 220804Z 2208/2306 19015KT P6SM VCSH SCT025 BKN060
     FM220830 32016KT 5SM -TSRA BKN025CB OVC040
      TEMPO 2209/2210 32020G30KT 2SM TSRA BKN015CB
     FM221100 33018KT 5SM -SHRA VCTS SCT020CB BKN080
     FM221300 34020KT P6SM BKN150
     FM230000 34012KT P6SM SKC=

USA.gov is the U.S. government's official web portal to all federal, state and local government web resources and services.